Time;durP1;ratioP1;P1;durP2;ratioP2;P2;SDS_P1;SDS_P2;PMS_P1;PMS_P2;Temp;Humidity;BMP_temperature;BMP_pressure;BME280_temperature;BME280_humidity;BME280_pressure;Samples;Min_cycle;Max_cycle;Signal;HPM_P1;HPM_P2
2022/06/25 00:01:05;;;;;;;15.25;2.92;;;14.90;99.90;;;;;;5028588;28;20034;-71
2022/06/25 00:03:31;;;;;;;16.95;3.40;;;14.90;99.90;;;;;;5026107;28;20052;-70
2022/06/25 00:05:56;;;;;;;17.40;2.83;;;14.90;99.90;;;;;;5016903;28;20123;-72
2022/06/25 00:08:23;;;;;;;15.90;3.08;;;14.90;99.90;;;;;;5023433;28;20038;-70
2022/06/25 00:10:49;;;;;;;15.93;2.92;;;14.90;99.90;;;;;;5006896;28;20030;-71
2022/06/25 00:13:15;;;;;;;16.92;2.95;;;14.90;99.90;;;;;;5007155;28;20026;-71
2022/06/25 00:15:40;;;;;;;15.20;2.80;;;14.90;99.90;;;;;;5013675;28;20021;-71
2022/06/25 00:18:06;;;;;;;21.60;3.20;;;14.80;99.90;;;;;;5046469;28;20471;-69
2022/06/25 00:20:32;;;;;;;14.85;3.03;;;14.80;99.90;;;;;;5046822;28;20380;-71
2022/06/25 00:22:58;;;;;;;23.10;3.83;;;14.80;99.90;;;;;;5025245;28;20082;-70
2022/06/25 00:25:23;;;;;;;19.38;2.97;;;14.80;99.90;;;;;;5027551;28;20039;-72
2022/06/25 00:27:49;;;;;;;18.45;2.92;;;14.80;99.90;;;;;;5026829;28;20040;-70
2022/06/25 00:30:15;;;;;;;21.15;3.25;;;14.70;99.90;;;;;;5026799;28;20890;-70
2022/06/25 00:32:40;;;;;;;14.60;2.67;;;14.70;99.90;;;;;;5026381;28;20706;-71
2022/06/25 00:35:06;;;;;;;11.30;2.20;;;14.70;99.90;;;;;;5027840;28;20048;-69
2022/06/25 00:37:32;;;;;;;13.45;2.25;;;14.60;99.90;;;;;;5028253;28;20029;-70
2022/06/25 00:39:58;;;;;;;9.90;2.25;;;14.60;99.90;;;;;;5026660;28;20067;-69
2022/06/25 00:42:23;;;;;;;13.35;2.90;;;14.60;99.90;;;;;;5028142;28;20037;-71
2022/06/25 00:44:49;;;;;;;14.57;2.55;;;14.60;99.90;;;;;;5027869;28;20034;-70
2022/06/25 00:47:15;;;;;;;14.02;2.50;;;14.70;99.90;;;;;;5028184;28;20033;-70
2022/06/25 00:49:41;;;;;;;13.70;2.60;;;14.70;99.90;;;;;;5023586;28;20028;-70
2022/06/25 00:52:13;;;;;;;15.95;3.13;;;14.70;99.90;;;;;;5027675;28;20037;-72
2022/06/25 00:54:48;;;;;;;16.40;2.60;;;14.70;99.90;;;;;;5030372;28;20045;-70
2022/06/25 00:57:20;;;;;;;17.83;2.75;;;14.70;99.90;;;;;;5030547;28;20116;-71
2022/06/25 00:59:49;;;;;;;13.93;2.22;;;14.60;99.90;;;;;;5031837;28;20046;-68
2022/06/25 01:02:14;;;;;;;23.17;3.60;;;14.60;99.90;;;;;;5030331;28;20029;-72
2022/06/25 01:04:41;;;;;;;17.25;2.80;;;14.60;99.90;;;;;;5031550;28;20040;-69
2022/06/25 01:07:08;;;;;;;11.63;2.42;;;14.60;99.90;;;;;;5031644;28;20038;-70
2022/06/25 01:09:34;;;;;;;17.92;2.58;;;14.60;99.90;;;;;;5032000;28;20075;-69
2022/06/25 01:12:00;;;;;;;13.65;2.65;;;14.60;99.90;;;;;;5030285;28;20479;-72
2022/06/25 01:14:25;;;;;;;13.82;2.30;;;14.60;99.90;;;;;;5030273;28;20040;-72
2022/06/25 01:16:51;;;;;;;13.18;2.42;;;14.60;99.90;;;;;;5031483;28;20037;-71
2022/06/25 01:19:17;;;;;;;18.63;2.83;;;14.60;99.90;;;;;;5031841;28;20033;-69
2022/06/25 01:21:44;;;;;;;11.27;1.88;;;14.50;99.90;;;;;;5031449;28;20037;-70
2022/06/25 01:24:11;;;;;;;15.73;2.80;;;14.50;99.90;;;;;;5029745;28;20060;-69
2022/06/25 01:26:42;;;;;;;16.25;2.25;;;14.50;99.90;;;;;;5031507;28;20068;-70
2022/06/25 01:29:09;;;;;;;12.15;2.53;;;14.50;99.90;;;;;;5030073;28;20025;-71
2022/06/25 01:31:35;;;;;;;11.88;2.53;;;14.40;99.90;;;;;;5031176;28;20038;-71
2022/06/25 01:34:02;;;;;;;17.80;2.72;;;14.50;99.90;;;;;;5029801;28;20076;-71
2022/06/25 01:36:28;;;;;;;11.68;2.67;;;14.40;99.90;;;;;;5029810;28;20033;-70
2022/06/25 01:38:53;;;;;;;19.10;3.15;;;14.50;99.90;;;;;;5029962;28;20115;-72
2022/06/25 01:41:19;;;;;;;13.25;2.60;;;14.40;99.90;;;;;;5029989;28;20060;-70
2022/06/25 01:43:46;;;;;;;12.60;2.38;;;14.40;99.90;;;;;;5031108;28;20022;-70
2022/06/25 01:46:12;;;;;;;12.82;2.90;;;14.30;99.90;;;;;;5029508;28;20032;-72
2022/06/25 01:48:38;;;;;;;16.33;2.58;;;14.40;99.90;;;;;;5030823;28;20079;-70
2022/06/25 01:51:03;;;;;;;16.45;3.03;;;14.30;99.90;;;;;;5030856;28;20037;-70
2022/06/25 01:53:29;;;;;;;14.75;2.70;;;14.40;99.90;;;;;;5037657;28;20733;-69
2022/06/25 01:55:55;;;;;;;11.07;2.08;;;14.30;99.90;;;;;;5050894;28;20033;-69
2022/06/25 01:58:22;;;;;;;14.25;2.45;;;14.30;99.90;;;;;;5049337;28;20032;-69
2022/06/25 02:00:47;;;;;;;15.27;3.00;;;14.30;99.90;;;;;;5049147;28;20537;-69
2022/06/25 02:03:14;;;;;;;16.05;2.60;;;14.30;99.90;;;;;;5048301;28;20025;-69
2022/06/25 02:05:59;;;;;;;13.55;2.33;;;14.30;99.90;;;;;;5050590;28;20040;-70
2022/06/25 02:08:30;;;;;;;14.90;2.35;;;14.30;99.90;;;;;;5050954;28;20048;-71
2022/06/25 02:10:57;;;;;;;12.15;2.30;;;14.30;99.90;;;;;;5033495;28;20116;-70
2022/06/25 02:13:23;;;;;;;15.93;2.67;;;14.40;99.90;;;;;;5024097;28;20146;-69
2022/06/25 02:15:49;;;;;;;13.20;2.20;;;14.30;99.90;;;;;;5029869;28;20524;-72
2022/06/25 02:18:15;;;;;;;19.38;2.60;;;14.30;99.90;;;;;;5025821;28;20472;-72
2022/06/25 02:20:42;;;;;;;14.35;2.55;;;14.30;99.90;;;;;;5027402;28;20096;-72
2022/06/25 02:23:09;;;;;;;14.50;2.60;;;14.30;99.90;;;;;;5029035;28;20050;-70
2022/06/25 02:25:35;;;;;;;22.83;2.42;;;14.30;99.90;;;;;;5030225;28;20037;-71
2022/06/25 02:28:00;;;;;;;11.77;2.50;;;14.30;99.90;;;;;;5030111;28;20033;-73
2022/06/25 02:30:26;;;;;;;17.48;2.72;;;14.30;99.90;;;;;;5028400;28;20112;-69
2022/06/25 02:32:52;;;;;;;19.15;2.42;;;14.30;99.90;;;;;;5028634;28;20079;-69
2022/06/25 02:35:17;;;;;;;19.38;2.75;;;14.30;99.90;;;;;;5030188;28;20543;-71
2022/06/25 02:37:43;;;;;;;17.88;2.60;;;14.30;99.90;;;;;;5030048;28;20026;-69
2022/06/25 02:40:09;;;;;;;17.23;3.08;;;14.30;99.90;;;;;;5028350;28;20083;-71
2022/06/25 02:42:36;;;;;;;16.48;2.72;;;14.30;99.90;;;;;;5029551;28;20403;-71
2022/06/25 02:45:04;;;;;;;17.67;2.97;;;14.30;99.90;;;;;;5029609;28;20128;-70
2022/06/25 02:47:29;;;;;;;11.45;2.33;;;14.30;99.90;;;;;;5028481;28;20481;-71
2022/06/25 02:49:55;;;;;;;16.63;2.80;;;14.20;99.90;;;;;;5025788;28;20025;-70
2022/06/25 02:52:21;;;;;;;15.75;2.28;;;14.20;99.90;;;;;;5034468;28;20587;-70
2022/06/25 02:54:47;;;;;;;14.18;2.25;;;14.20;99.90;;;;;;5049712;28;20063;-70
2022/06/25 02:59:57;;;;;;;22.48;2.65;;;14.20;99.90;;;;;;5039037;28;20064;-73
2022/06/25 03:02:22;;;;;;;18.08;2.42;;;14.20;99.90;;;;;;5051709;28;20124;-70
2022/06/25 03:04:48;;;;;;;17.58;2.47;;;14.20;99.90;;;;;;5029379;28;20029;-71
2022/06/25 03:07:14;;;;;;;14.15;2.55;;;14.20;99.90;;;;;;5028032;28;20030;-70
2022/06/25 03:09:40;;;;;;;14.65;2.53;;;14.20;99.90;;;;;;5029509;28;20036;-69
2022/06/25 03:12:07;;;;;;;16.65;2.80;;;14.20;99.90;;;;;;5027742;28;20030;-70
2022/06/25 03:14:33;;;;;;;15.15;2.50;;;14.20;99.90;;;;;;5029247;28;20134;-72
2022/06/25 03:16:59;;;;;;;16.95;2.80;;;14.20;99.90;;;;;;5029719;28;20499;-71
2022/06/25 03:19:24;;;;;;;15.63;2.55;;;14.10;99.90;;;;;;5027910;28;20038;-72
2022/06/25 03:21:50;;;;;;;20.40;2.78;;;14.10;99.90;;;;;;5029201;28;20025;-70
2022/06/25 03:24:15;;;;;;;16.17;2.35;;;14.10;99.90;;;;;;5029129;28;20402;-70
2022/06/25 03:26:41;;;;;;;14.68;2.25;;;14.00;99.90;;;;;;5028700;28;20120;-69
2022/06/25 03:29:07;;;;;;;12.15;2.47;;;14.00;99.90;;;;;;5029521;28;20064;-70
2022/06/25 03:31:33;;;;;;;14.00;2.40;;;14.00;99.90;;;;;;5029400;28;20511;-69
2022/06/25 03:33:58;;;;;;;14.88;2.63;;;14.00;99.90;;;;;;5029279;28;20029;-69
2022/06/25 03:36:24;;;;;;;11.93;1.80;;;14.00;99.90;;;;;;5029020;28;20052;-70
2022/06/25 03:38:49;;;;;;;12.80;2.63;;;14.00;99.90;;;;;;5029182;28;20087;-69
2022/06/25 03:41:35;;;;;;;15.77;2.30;;;14.00;99.90;;;;;;5028679;28;20025;-70
2022/06/25 03:44:06;;;;;;;17.17;2.83;;;14.10;99.90;;;;;;5029223;28;20026;-71
2022/06/25 03:46:34;;;;;;;12.23;2.45;;;14.00;99.90;;;;;;5027518;28;20123;-71
2022/06/25 03:49:00;;;;;;;13.02;2.53;;;14.00;99.90;;;;;;5027241;28;20033;-71
2022/06/25 03:51:27;;;;;;;18.48;3.05;;;14.00;99.90;;;;;;5028404;28;20033;-72
2022/06/25 03:53:53;;;;;;;14.30;2.47;;;14.00;99.90;;;;;;5028517;28;20460;-71
2022/06/25 03:56:19;;;;;;;16.50;2.88;;;14.00;99.90;;;;;;5027262;28;20025;-69
2022/06/25 03:58:45;;;;;;;16.20;2.70;;;14.00;99.90;;;;;;5028851;28;20040;-68
2022/06/25 04:01:10;;;;;;;17.20;2.60;;;14.10;99.90;;;;;;5028546;28;20036;-69
2022/06/25 04:03:36;;;;;;;17.58;2.28;;;14.10;99.90;;;;;;5028344;28;20476;-70
2022/06/25 04:06:02;;;;;;;15.35;2.95;;;14.10;99.90;;;;;;5028354;28;20037;-68
2022/06/25 04:08:29;;;;;;;11.98;2.53;;;14.10;99.90;;;;;;5028220;28;20120;-70
2022/06/25 04:10:54;;;;;;;15.63;2.50;;;14.10;99.90;;;;;;5027021;28;20040;-72
2022/06/25 04:13:20;;;;;;;17.05;2.45;;;14.10;99.90;;;;;;5028269;28;20022;-69
2022/06/25 04:15:46;;;;;;;14.18;2.60;;;14.10;99.90;;;;;;5028246;28;20160;-70
2022/06/25 04:18:12;;;;;;;18.05;2.95;;;14.10;99.90;;;;;;5028254;28;20034;-70
2022/06/25 04:20:37;;;;;;;14.80;2.50;;;14.10;99.90;;;;;;5028191;28;20120;-70
2022/06/25 04:23:03;;;;;;;12.55;2.20;;;14.10;99.90;;;;;;5027900;28;20199;-69
2022/06/25 04:25:29;;;;;;;16.25;3.25;;;14.10;99.90;;;;;;5026620;28;20041;-69
2022/06/25 04:30:38;;;;;;;20.77;2.60;;;14.20;99.90;;;;;;5028111;28;20044;-70
2022/06/25 04:33:04;;;;;;;17.20;2.80;;;14.20;99.90;;;;;;5027948;28;20411;-70
2022/06/25 04:35:30;;;;;;;18.00;2.80;;;14.10;99.90;;;;;;5026437;28;20032;-70
2022/06/25 04:37:55;;;;;;;12.43;2.42;;;14.20;99.90;;;;;;5027942;28;20073;-69
2022/06/25 04:40:21;;;;;;;22.75;2.63;;;14.20;99.90;;;;;;5021877;28;20026;-69
2022/06/25 04:42:47;;;;;;;16.38;2.60;;;14.20;99.90;;;;;;5015449;28;20073;-70
2022/06/25 04:45:13;;;;;;;15.25;2.65;;;14.20;99.90;;;;;;5026540;28;20045;-70
2022/06/25 04:47:38;;;;;;;15.43;2.63;;;14.10;99.90;;;;;;5022702;28;20133;-70
2022/06/25 04:50:08;;;;;;;13.85;2.58;;;14.20;99.90;;;;;;5009646;28;20034;-70
2022/06/25 04:52:34;;;;;;;18.45;2.33;;;14.20;99.90;;;;;;5032611;28;20037;-70
2022/06/25 04:54:59;;;;;;;15.68;2.70;;;14.20;99.90;;;;;;5041169;28;20029;-73
2022/06/25 04:57:25;;;;;;;14.05;2.22;;;14.20;99.90;;;;;;5014061;28;20026;-71
2022/06/25 04:59:51;;;;;;;15.60;2.40;;;14.20;99.90;;;;;;5028603;28;20081;-71
2022/06/25 05:02:16;;;;;;;14.30;2.30;;;14.20;99.90;;;;;;5013984;28;20105;-73
2022/06/25 05:04:42;;;;;;;15.43;2.72;;;14.20;99.90;;;;;;5012915;28;20042;-69
2022/06/25 05:07:08;;;;;;;18.35;2.97;;;14.20;99.90;;;;;;5027809;28;20745;-73
2022/06/25 05:09:34;;;;;;;20.92;3.50;;;14.20;99.90;;;;;;5018902;28;20501;-70
2022/06/25 05:11:59;;;;;;;17.80;2.90;;;14.30;99.90;;;;;;5007480;28;20034;-70
2022/06/25 05:14:25;;;;;;;15.60;2.95;;;14.30;99.90;;;;;;5010179;28;20133;-69
2022/06/25 05:16:53;;;;;;;15.23;2.38;;;14.30;99.90;;;;;;5019344;28;20545;-70
2022/06/25 05:19:18;;;;;;;19.48;2.97;;;14.40;99.90;;;;;;5022000;28;20029;-70
2022/06/25 05:21:44;;;;;;;22.08;3.63;;;14.40;99.90;;;;;;5013499;28;20499;-70
2022/06/25 05:24:10;;;;;;;17.13;3.08;;;14.40;99.90;;;;;;5008192;28;20523;-70
2022/06/25 05:26:35;;;;;;;12.15;2.55;;;14.50;99.90;;;;;;5026930;28;20475;-70
2022/06/25 05:29:01;;;;;;;19.35;2.92;;;14.50;99.90;;;;;;5026087;28;20523;-69
2022/06/25 05:31:26;;;;;;;17.65;2.88;;;14.50;99.90;;;;;;5038891;28;20450;-70
2022/06/25 05:33:52;;;;;;;15.80;2.50;;;14.50;99.90;;;;;;5007711;28;20084;-70
2022/06/25 05:36:18;;;;;;;14.77;2.65;;;14.60;99.90;;;;;;5007605;28;20034;-70
2022/06/25 05:38:43;;;;;;;14.63;2.80;;;14.60;99.90;;;;;;5012586;28;20034;-73
2022/06/25 05:41:09;;;;;;;14.93;2.33;;;14.70;99.90;;;;;;5010808;28;20030;-71
2022/06/25 05:43:36;;;;;;;16.40;2.42;;;14.70;99.90;;;;;;5013405;28;20663;-70
2022/06/25 05:46:02;;;;;;;16.65;2.88;;;14.80;99.90;;;;;;5011793;28;20091;-71
2022/06/25 05:48:28;;;;;;;16.40;2.58;;;14.80;99.90;;;;;;5012667;28;20467;-70
2022/06/25 05:50:54;;;;;;;18.13;2.90;;;14.90;99.90;;;;;;5022288;28;20040;-70
2022/06/25 05:53:20;;;;;;;14.00;2.53;;;15.00;99.90;;;;;;5015353;28;20038;-70
2022/06/25 05:55:46;;;;;;;16.88;2.53;;;15.10;99.90;;;;;;5011604;28;20123;-70
2022/06/25 05:58:12;;;;;;;13.20;2.55;;;15.10;99.90;;;;;;5017807;28;20492;-72
2022/06/25 06:00:39;;;;;;;20.40;3.03;;;15.10;99.90;;;;;;5021643;28;20040;-71
2022/06/25 06:03:05;;;;;;;15.55;2.65;;;15.10;99.90;;;;;;5027028;28;20040;-72
2022/06/25 06:05:31;;;;;;;16.95;3.42;;;15.10;99.90;;;;;;5051748;28;20033;-71
2022/06/25 06:07:56;;;;;;;17.05;2.90;;;15.10;99.90;;;;;;5024771;28;20455;-73
2022/06/25 06:10:22;;;;;;;17.10;2.90;;;15.10;99.90;;;;;;5031812;28;20126;-73
2022/06/25 06:12:48;;;;;;;17.58;3.15;;;15.10;99.90;;;;;;5026828;28;20064;-71
2022/06/25 06:15:14;;;;;;;16.23;2.75;;;15.10;99.90;;;;;;5028387;28;20060;-72
2022/06/25 06:17:40;;;;;;;14.98;2.55;;;15.10;99.90;;;;;;5030421;28;20065;-72
2022/06/25 06:20:06;;;;;;;15.90;2.88;;;15.20;99.90;;;;;;5026394;28;20037;-72
2022/06/25 06:22:32;;;;;;;17.63;2.80;;;15.20;99.90;;;;;;5027737;28;20725;-73
2022/06/25 06:24:58;;;;;;;18.48;3.60;;;15.20;99.90;;;;;;5027213;28;20067;-70
2022/06/25 06:27:23;;;;;;;17.58;3.15;;;15.20;99.90;;;;;;5028577;28;20122;-73
2022/06/25 06:29:49;;;;;;;14.80;2.53;;;15.20;99.90;;;;;;5024835;28;20046;-69
2022/06/25 06:32:15;;;;;;;14.10;2.45;;;15.10;99.90;;;;;;5036383;28;20059;-70
2022/06/25 06:34:42;;;;;;;19.02;3.13;;;15.10;99.90;;;;;;5028396;28;20030;-69
2022/06/25 06:37:07;;;;;;;17.92;3.17;;;15.10;99.90;;;;;;5024933;28;20850;-70
2022/06/25 06:39:33;;;;;;;12.85;2.85;;;15.10;99.90;;;;;;5022244;28;20116;-73
2022/06/25 06:41:59;;;;;;;18.30;2.88;;;15.10;99.90;;;;;;5021030;28;20125;-70
2022/06/25 06:44:25;;;;;;;17.67;3.00;;;15.20;99.90;;;;;;5028731;28;20121;-71
2022/06/25 06:46:50;;;;;;;17.00;2.50;;;15.20;99.90;;;;;;5024003;28;20112;-70
2022/06/25 06:49:16;;;;;;;16.05;3.45;;;15.20;99.90;;;;;;5028998;28;20033;-69
2022/06/25 06:51:42;;;;;;;18.80;3.35;;;15.20;99.90;;;;;;5027531;28;20651;-70
2022/06/25 06:54:07;;;;;;;14.25;2.65;;;15.10;99.90;;;;;;5019801;28;20439;-72
2022/06/25 06:56:33;;;;;;;15.90;2.70;;;15.10;99.90;;;;;;5027922;28;20028;-70
2022/06/25 06:58:59;;;;;;;12.07;2.53;;;15.10;99.90;;;;;;5028244;28;20044;-71
2022/06/25 07:01:25;;;;;;;17.70;3.08;;;15.10;99.90;;;;;;5034121;28;20029;-70
2022/06/25 07:03:51;;;;;;;14.82;2.67;;;15.30;99.90;;;;;;5026993;28;20036;-69
2022/06/25 07:06:17;;;;;;;17.35;3.08;;;15.40;99.90;;;;;;5029726;28;20028;-71
2022/06/25 07:08:42;;;;;;;12.65;2.53;;;15.50;99.90;;;;;;5040742;28;20513;-69
2022/06/25 07:13:53;;;;;;;18.80;2.55;;;15.80;99.90;;;;;;5021278;28;20428;-69
2022/06/25 07:16:19;;;;;;;15.05;2.58;;;16.00;99.90;;;;;;5034188;28;20404;-69
2022/06/25 07:18:45;;;;;;;16.85;2.28;;;16.10;99.90;;;;;;5025144;28;20044;-69
2022/06/25 07:21:11;;;;;;;8.40;2.15;;;16.30;99.90;;;;;;5023353;28;20044;-70
2022/06/25 07:23:36;;;;;;;16.02;3.47;;;16.40;99.90;;;;;;5014362;28;20463;-72
2022/06/25 07:26:02;;;;;;;13.50;2.30;;;16.50;99.90;;;;;;5019640;28;20120;-70
2022/06/25 07:28:27;;;;;;;11.13;3.30;;;16.50;99.90;;;;;;5037271;28;20598;-71
2022/06/25 07:30:53;;;;;;;19.02;3.92;;;16.60;99.90;;;;;;5020421;28;20033;-71
2022/06/25 07:33:19;;;;;;;13.35;2.97;;;16.70;99.90;;;;;;5025835;28;20542;-71
2022/06/25 07:35:44;;;;;;;12.60;2.90;;;16.70;99.90;;;;;;5026928;28;20448;-70
2022/06/25 07:38:10;;;;;;;13.35;2.80;;;16.70;99.90;;;;;;5015958;28;20123;-69
2022/06/25 07:40:36;;;;;;;16.17;2.70;;;16.60;99.90;;;;;;5018039;28;20128;-70
2022/06/25 07:43:02;;;;;;;14.38;2.80;;;16.70;99.90;;;;;;5024544;28;20038;-71
2022/06/25 07:45:28;;;;;;;18.73;3.38;;;16.70;99.90;;;;;;5028433;28;20095;-70
2022/06/25 07:47:53;;;;;;;10.93;1.98;;;16.70;99.90;;;;;;5026338;28;20516;-72
2022/06/25 07:53:03;;;;;;;11.95;2.10;;;16.70;99.90;;;;;;5032515;28;20485;-72
2022/06/25 07:55:29;;;;;;;12.60;2.67;;;16.70;99.90;;;;;;5031987;28;20485;-71
2022/06/25 07:57:55;;;;;;;14.55;2.63;;;16.60;99.90;;;;;;5027371;28;20026;-71
2022/06/25 08:00:22;;;;;;;11.77;1.90;;;16.60;99.90;;;;;;5029042;28;20524;-70
2022/06/25 08:02:48;;;;;;;9.48;1.90;;;16.60;99.90;;;;;;5028713;28;20029;-71
2022/06/25 08:05:14;;;;;;;12.90;2.58;;;16.60;99.80;;;;;;5036985;28;20535;-69
2022/06/25 08:07:39;;;;;;;13.05;2.22;;;16.50;99.90;;;;;;5029758;28;20033;-72
2022/06/25 08:10:06;;;;;;;11.40;2.70;;;16.50;99.90;;;;;;5021604;28;20468;-73
2022/06/25 08:12:31;;;;;;;15.07;2.22;;;16.50;99.90;;;;;;5025053;28;20021;-70
2022/06/25 08:14:58;;;;;;;14.10;2.65;;;16.40;99.90;;;;;;5038619;28;20060;-72
2022/06/25 08:17:23;;;;;;;14.10;2.90;;;16.30;99.90;;;;;;5027269;28;20395;-69
2022/06/25 08:19:49;;;;;;;13.70;3.10;;;16.20;99.90;;;;;;5029652;28;20044;-71
2022/06/25 08:22:15;;;;;;;17.80;2.72;;;16.20;99.90;;;;;;5018887;28;20606;-74
2022/06/25 08:24:40;;;;;;;17.75;3.28;;;16.50;99.90;;;;;;5024860;28;20708;-74
2022/06/25 08:27:06;;;;;;;12.73;2.10;;;16.70;99.90;;;;;;5042024;28;20037;-71
2022/06/25 08:29:32;;;;;;;15.98;3.13;;;16.90;99.90;;;;;;5022498;28;20034;-71
2022/06/25 08:31:57;;;;;;;14.40;2.38;;;17.00;99.90;;;;;;5016451;28;20036;-72
2022/06/25 08:34:23;;;;;;;20.30;2.75;;;17.20;99.90;;;;;;5026769;28;20040;-70
2022/06/25 08:36:49;;;;;;;14.43;2.70;;;17.40;99.90;;;;;;5023991;28;20025;-72
2022/06/25 08:39:14;;;;;;;11.13;2.22;;;17.60;99.90;;;;;;5025400;28;20087;-74
2022/06/25 08:41:41;;;;;;;9.70;1.98;;;17.50;99.90;;;;;;5026442;28;20101;-71
2022/06/25 08:44:07;;;;;;;13.57;2.30;;;17.30;99.90;;;;;;5036588;28;20030;-70
2022/06/25 08:46:33;;;;;;;10.77;1.92;;;17.10;99.90;;;;;;5028758;28;20052;-71
2022/06/25 08:49:00;;;;;;;13.90;2.45;;;17.00;99.90;;;;;;5016183;28;20033;-71
2022/06/25 08:51:28;;;;;;;11.95;2.25;;;17.00;99.90;;;;;;5021482;28;20030;-72
2022/06/25 08:53:58;;;;;;;9.10;2.13;;;17.00;99.30;;;;;;5029312;28;20045;-68
2022/06/25 08:56:24;;;;;;;13.10;2.55;;;17.00;99.90;;;;;;5030607;28;20124;-72
2022/06/25 08:58:49;;;;;;;12.00;2.40;;;16.80;99.60;;;;;;5036758;28;20132;-73
2022/06/25 09:01:15;;;;;;;14.80;2.55;;;16.80;99.90;;;;;;5029058;28;20506;-70
2022/06/25 09:03:42;;;;;;;15.25;2.20;;;16.90;99.90;;;;;;5027597;28;20126;-70
2022/06/25 09:06:13;;;;;;;11.82;2.20;;;17.00;99.90;;;;;;5032528;28;20068;-73
2022/06/25 09:08:40;;;;;;;13.60;2.13;;;17.10;99.50;;;;;;5013881;28;20045;-71
2022/06/25 09:11:06;;;;;;;11.40;2.03;;;17.20;99.90;;;;;;5048733;28;20033;-71
2022/06/25 09:13:31;;;;;;;10.60;2.17;;;17.10;98.80;;;;;;5017888;28;20689;-74
2022/06/25 09:15:57;;;;;;;10.73;2.05;;;17.00;99.80;;;;;;5011776;28;20475;-70
2022/06/25 09:18:23;;;;;;;11.02;2.25;;;17.20;99.90;;;;;;5012151;28;20034;-71
2022/06/25 09:21:08;;;;;;;11.98;1.90;;;17.30;99.90;;;;;;5012105;28;20108;-72
2022/06/25 09:23:35;;;;;;;15.98;2.13;;;17.50;99.90;;;;;;5010485;28;20053;-72
2022/06/25 09:26:12;;;;;;;13.32;2.70;;;17.40;99.20;;;;;;5010752;28;20523;-72
2022/06/25 09:28:44;;;;;;;11.18;2.13;;;17.40;99.90;;;;;;5010625;28;20061;-69
2022/06/25 09:31:09;;;;;;;12.80;2.17;;;17.40;99.90;;;;;;5011820;28;20481;-69
2022/06/25 09:33:37;;;;;;;12.10;2.50;;;17.30;99.90;;;;;;5012281;28;20088;-70
2022/06/25 09:36:04;;;;;;;12.77;2.33;;;17.20;99.90;;;;;;5012562;28;20095;-72
2022/06/25 09:38:31;;;;;;;10.93;2.00;;;17.10;99.90;;;;;;5010336;28;20041;-74
2022/06/25 09:40:59;;;;;;;9.77;1.75;;;17.10;99.90;;;;;;5011796;28;20029;-74
2022/06/25 09:43:27;;;;;;;12.02;2.30;;;17.00;99.20;;;;;;5011712;28;20088;-70
2022/06/25 09:45:55;;;;;;;10.77;2.10;;;17.00;99.90;;;;;;5010132;28;20033;-69
2022/06/25 09:48:21;;;;;;;10.07;2.20;;;17.10;99.90;;;;;;5010248;28;20121;-73
2022/06/25 09:51:06;;;;;;;12.38;2.45;;;17.20;99.90;;;;;;5010543;28;20037;-71
2022/06/25 09:53:34;;;;;;;10.27;2.10;;;17.30;99.90;;;;;;5010466;28;20069;-74
2022/06/25 09:56:03;;;;;;;16.92;2.80;;;17.30;99.90;;;;;;5011599;28;20037;-73
2022/06/25 09:58:32;;;;;;;12.57;2.40;;;17.30;99.90;;;;;;5011185;28;20471;-70
2022/06/25 10:00:58;;;;;;;12.00;2.22;;;17.30;99.40;;;;;;5011455;28;20554;-73
2022/06/25 10:03:25;;;;;;;11.25;2.05;;;17.20;99.90;;;;;;5011523;28;20489;-74
2022/06/25 10:05:53;;;;;;;11.07;2.25;;;17.00;99.90;;;;;;5011414;28;20044;-75
2022/06/25 10:08:21;;;;;;;8.48;2.08;;;16.70;99.90;;;;;;5011379;28;20121;-72
2022/06/25 10:10:50;;;;;;;10.93;2.15;;;16.50;99.90;;;;;;5011193;28;20033;-70
2022/06/25 10:13:16;;;;;;;11.95;2.22;;;16.20;99.90;;;;;;5009767;28;20417;-71
2022/06/25 10:15:45;;;;;;;11.23;2.08;;;16.10;99.90;;;;;;5011642;28;20040;-70
2022/06/25 10:18:11;;;;;;;12.40;2.28;;;16.00;99.90;;;;;;5011354;28;20026;-71
2022/06/25 10:20:40;;;;;;;10.07;1.80;;;16.30;99.90;;;;;;5011192;28;20068;-72
2022/06/25 10:23:08;;;;;;;12.32;2.67;;;16.60;99.90;;;;;;5009689;28;20509;-72
2022/06/25 10:25:34;;;;;;;8.27;2.00;;;16.70;99.90;;;;;;5008592;28;20042;-72
2022/06/25 10:28:23;;;;;;;14.18;1.95;;;16.80;99.90;;;;;;5010939;28;20095;-72
2022/06/25 10:30:52;;;;;;;14.67;2.43;;;17.00;99.90;;;;;;5011924;28;20045;-71
2022/06/25 10:33:23;;;;;;;13.07;2.28;;;17.10;99.90;;;;;;5030476;28;20056;-75
2022/06/25 10:35:50;;;;;;;14.10;2.15;;;17.20;99.90;;;;;;5029363;28;20488;-73
2022/06/25 10:38:18;;;;;;;11.02;2.00;;;17.20;99.90;;;;;;5030706;28;20145;-72
2022/06/25 10:40:50;;;;;;;11.68;2.53;;;17.10;99.90;;;;;;5027382;28;20171;-72
2022/06/25 10:43:49;;;;;;;11.57;2.20;;;17.10;99.90;;;;;;5028830;28;20127;-71
2022/06/25 10:46:23;;;;;;;9.68;1.98;;;17.10;99.90;;;;;;5028660;28;20414;-72
2022/06/25 10:49:18;;;;;;;10.70;2.20;;;17.00;99.90;;;;;;5029130;28;20068;-72
2022/06/25 10:51:51;;;;;;;8.65;1.63;;;17.00;99.90;;;;;;5029886;28;20041;-71
2022/06/25 10:54:22;;;;;;;8.13;1.83;;;17.00;99.90;;;;;;5026712;28;20663;-70
2022/06/25 10:56:56;;;;;;;13.15;2.22;;;17.10;99.90;;;;;;5030206;28;20034;-72
2022/06/25 10:59:45;;;;;;;11.15;1.95;;;17.00;99.90;;;;;;5029176;28;20139;-72
2022/06/25 11:02:16;;;;;;;13.63;2.47;;;17.20;99.90;;;;;;5029086;28;20571;-72
2022/06/25 11:04:52;;;;;;;11.38;1.92;;;17.20;99.90;;;;;;5030309;28;20500;-73
2022/06/25 11:07:20;;;;;;;13.60;2.00;;;17.40;99.90;;;;;;5030685;28;20267;-73
2022/06/25 11:09:59;;;;;;;9.88;2.22;;;17.50;99.90;;;;;;5030392;28;20037;-73
2022/06/25 11:12:27;;;;;;;16.20;2.47;;;17.50;99.90;;;;;;5028453;28;20033;-73
2022/06/25 11:15:05;;;;;;;11.05;2.10;;;17.50;99.90;;;;;;5029848;28;20282;-71
2022/06/25 11:17:31;;;;;;;13.40;2.17;;;17.50;99.90;;;;;;5028803;28;20476;-76
2022/06/25 11:20:09;;;;;;;10.15;1.90;;;17.40;99.90;;;;;;5028519;28;20056;-72
2022/06/25 11:22:55;;;;;;;9.27;1.95;;;17.40;99.90;;;;;;5029791;28;20559;-72
2022/06/25 11:30:50;;;;;;;8.70;1.90;;;17.20;99.90;;;;;;5030254;28;20586;-71
2022/06/25 11:33:16;;;;;;;12.15;1.77;;;17.10;99.90;;;;;;5028628;28;20029;-77
2022/06/25 11:35:44;;;;;;;12.80;2.20;;;17.00;99.90;;;;;;5028636;28;20040;-73
2022/06/25 11:38:20;;;;;;;11.35;2.30;;;17.00;99.90;;;;;;5013723;28;20475;-72
2022/06/25 11:40:46;;;;;;;8.30;1.83;;;17.10;99.90;;;;;;5016922;28;20029;-76
2022/06/25 11:43:15;;;;;;;11.70;1.92;;;17.20;99.90;;;;;;5020122;28;20465;-72
2022/06/25 11:45:47;;;;;;;11.85;1.98;;;17.30;99.90;;;;;;5022852;28;20055;-71
2022/06/25 11:48:14;;;;;;;12.98;2.22;;;17.30;99.90;;;;;;5027617;28;20038;-71
2022/06/25 11:50:40;;;;;;;12.93;2.17;;;17.30;99.90;;;;;;5015862;28;20057;-73
2022/06/25 11:53:05;;;;;;;10.02;1.98;;;17.20;99.90;;;;;;5029588;28;20113;-74
2022/06/25 11:55:31;;;;;;;11.32;2.28;;;17.20;99.90;;;;;;5018472;28;20029;-75
2022/06/25 11:57:58;;;;;;;12.65;1.90;;;17.20;99.90;;;;;;5027472;28;20034;-71
2022/06/25 12:00:24;;;;;;;11.43;2.30;;;17.20;99.90;;;;;;5028975;28;20395;-72
2022/06/25 12:03:03;;;;;;;12.50;2.45;;;17.30;99.90;;;;;;5027703;28;20481;-72
2022/06/25 12:05:29;;;;;;;;;;;17.40;99.90;;;;;;5027686;28;20043;-71
2022/06/25 12:07:56;;;;;;;10.35;2.08;;;17.40;99.90;;;;;;5029028;28;20008;-71
2022/06/25 12:10:23;;;;;;;12.15;1.98;;;17.40;99.90;;;;;;5028779;28;20069;-72
2022/06/25 12:12:49;;;;;;;11.27;2.03;;;17.40;99.90;;;;;;5029077;28;20057;-80
2022/06/25 12:15:15;;;;;;;12.73;2.05;;;17.40;99.90;;;;;;5021823;28;20060;-74
2022/06/25 12:17:41;;;;;;;12.52;1.95;;;17.50;99.90;;;;;;5017352;28;20061;-73
2022/06/25 12:20:12;;;;;;;11.52;1.70;;;17.70;99.90;;;;;;5013363;28;20134;-74
2022/06/25 12:22:43;;;;;;;10.80;1.75;;;17.80;99.90;;;;;;5060181;28;20514;-73
2022/06/25 12:25:10;;;;;;;11.63;1.75;;;18.00;97.10;;;;;;5027504;28;20045;-73
2022/06/25 12:27:49;;;;;;;8.63;1.80;;;18.20;96.70;;;;;;5028336;28;20404;-75
2022/06/25 12:30:31;;;;;;;9.27;2.03;;;18.50;98.00;;;;;;5009132;28;20061;-77
2022/06/25 12:33:13;;;;;;;10.98;2.00;;;18.70;97.90;;;;;;5012959;28;20121;-74
2022/06/25 12:35:48;;;;;;;11.20;2.10;;;18.80;97.20;;;;;;5028685;28;20037;-76
2022/06/25 12:38:15;;;;;;;11.52;1.75;;;19.00;94.70;;;;;;5022952;28;20029;-70
2022/06/25 12:40:49;;;;;;;10.80;1.88;;;19.20;95.90;;;;;;5016576;28;20072;-76
2022/06/25 12:43:16;;;;;;;10.65;2.10;;;19.50;95.60;;;;;;5027155;28;20033;-75
2022/06/25 12:45:46;;;;;;;11.70;2.40;;;19.50;95.00;;;;;;5032198;28;20033;-71
2022/06/25 12:48:12;;;;;;;10.70;1.67;;;19.40;95.20;;;;;;5047672;28;20702;-72
2022/06/25 12:50:40;;;;;;;8.27;1.95;;;19.30;96.50;;;;;;5034289;28;20048;-74
2022/06/25 12:53:14;;;;;;;10.43;1.90;;;19.10;96.20;;;;;;5026001;28;20053;-72
2022/06/25 12:55:44;;;;;;;10.57;2.03;;;18.90;95.70;;;;;;5026379;28;20030;-73